sensor_id;sensor_type;location;lat;lon;timestamp;pressure;altitude;pressure_sealevel;temperature;humidity
85507;BME280;75915;41.988;21.460;2024-03-06T00:02:06;98434.66;;;10.03;58.80
85507;BME280;75915;41.988;21.460;2024-03-06T00:04:43;98425.03;;;10.08;58.86
85507;BME280;75915;41.988;21.460;2024-03-06T00:07:08;98431.19;;;10.18;58.53
85507;BME280;75915;41.988;21.460;2024-03-06T00:09:35;98435.75;;;10.08;58.52
85507;BME280;75915;41.988;21.460;2024-03-06T00:12:04;98434.91;;;10.02;58.77
85507;BME280;75915;41.988;21.460;2024-03-06T00:14:30;98442.69;;;10.03;58.53
85507;BME280;75915;41.988;21.460;2024-03-06T00:16:55;98438.69;;;9.96;58.99
85507;BME280;75915;41.988;21.460;2024-03-06T00:19:23;98436.19;;;9.69;59.58
85507;BME280;75915;41.988;21.460;2024-03-06T00:21:57;98442.03;;;9.45;60.24
85507;BME280;75915;41.988;21.460;2024-03-06T00:24:23;98440.47;;;9.54;59.81
85507;BME280;75915;41.988;21.460;2024-03-06T00:26:49;98435.91;;;9.60;59.73
85507;BME280;75915;41.988;21.460;2024-03-06T00:29:16;98436.72;;;9.66;59.39
85507;BME280;75915;41.988;21.460;2024-03-06T00:31:43;98446.13;;;9.78;59.34
85507;BME280;75915;41.988;21.460;2024-03-06T00:34:10;98442.94;;;9.81;59.50
85507;BME280;75915;41.988;21.460;2024-03-06T00:36:45;98445.06;;;9.79;59.13
85507;BME280;75915;41.988;21.460;2024-03-06T00:39:11;98444.19;;;9.53;59.99
85507;BME280;75915;41.988;21.460;2024-03-06T00:41:39;98451.94;;;9.50;59.95
85507;BME280;75915;41.988;21.460;2024-03-06T00:44:05;98453.53;;;9.46;60.42
85507;BME280;75915;41.988;21.460;2024-03-06T00:46:31;98459.13;;;9.49;60.49
85507;BME280;75915;41.988;21.460;2024-03-06T00:48:56;98456.50;;;9.54;60.56
85507;BME280;75915;41.988;21.460;2024-03-06T00:51:22;98451.97;;;9.60;60.20
85507;BME280;75915;41.988;21.460;2024-03-06T00:53:48;98461.09;;;9.64;60.25
85507;BME280;75915;41.988;21.460;2024-03-06T00:56:13;98455.97;;;9.63;59.79
85507;BME280;75915;41.988;21.460;2024-03-06T00:58:39;98456.25;;;9.66;59.65
85507;BME280;75915;41.988;21.460;2024-03-06T01:01:05;98449.84;;;9.72;59.44
85507;BME280;75915;41.988;21.460;2024-03-06T01:03:30;98456.25;;;9.66;59.52
85507;BME280;75915;41.988;21.460;2024-03-06T01:05:56;98466.69;;;9.68;59.98
85507;BME280;75915;41.988;21.460;2024-03-06T01:08:22;98464.25;;;9.61;60.35
85507;BME280;75915;41.988;21.460;2024-03-06T01:10:50;98467.47;;;9.58;59.88
85507;BME280;75915;41.988;21.460;2024-03-06T01:13:16;98470.69;;;9.55;59.97
85507;BME280;75915;41.988;21.460;2024-03-06T01:15:42;98471.50;;;9.60;60.02
85507;BME280;75915;41.988;21.460;2024-03-06T01:18:09;98471.47;;;9.55;60.29
85507;BME280;75915;41.988;21.460;2024-03-06T01:20:35;98479.75;;;9.54;60.24
85507;BME280;75915;41.988;21.460;2024-03-06T01:23:01;98477.84;;;9.49;60.66
85507;BME280;75915;41.988;21.460;2024-03-06T01:25:27;98478.59;;;9.34;61.05
85507;BME280;75915;41.988;21.460;2024-03-06T01:27:53;98476.78;;;9.40;60.90
85507;BME280;75915;41.988;21.460;2024-03-06T01:30:19;98475.69;;;9.41;60.71
85507;BME280;75915;41.988;21.460;2024-03-06T01:32:45;98476.22;;;9.38;60.88
85507;BME280;75915;41.988;21.460;2024-03-06T01:35:11;98490.41;;;9.38;60.68
85507;BME280;75915;41.988;21.460;2024-03-06T01:37:37;98497.28;;;9.29;60.99
85507;BME280;75915;41.988;21.460;2024-03-06T01:40:02;98490.59;;;9.27;61.31
85507;BME280;75915;41.988;21.460;2024-03-06T01:42:30;98493.53;;;9.25;60.96
85507;BME280;75915;41.988;21.460;2024-03-06T01:44:55;98498.94;;;9.30;60.89
85507;BME280;75915;41.988;21.460;2024-03-06T01:47:20;98492.75;;;9.30;60.99
85507;BME280;75915;41.988;21.460;2024-03-06T01:49:47;98506.09;;;9.25;60.86
85507;BME280;75915;41.988;21.460;2024-03-06T01:52:14;98508.22;;;9.23;61.02
85507;BME280;75915;41.988;21.460;2024-03-06T01:54:40;98508.69;;;9.09;61.48
85507;BME280;75915;41.988;21.460;2024-03-06T01:57:07;98509.97;;;8.96;61.79
85507;BME280;75915;41.988;21.460;2024-03-06T01:59:34;98512.28;;;8.88;61.19
85507;BME280;75915;41.988;21.460;2024-03-06T02:02:00;98509.66;;;8.93;61.07
85507;BME280;75915;41.988;21.460;2024-03-06T02:04:28;98511.00;;;8.95;61.36
85507;BME280;75915;41.988;21.460;2024-03-06T02:06:54;98512.31;;;8.93;61.49
85507;BME280;75915;41.988;21.460;2024-03-06T02:09:19;98513.66;;;8.90;61.40
85507;BME280;75915;41.988;21.460;2024-03-06T02:11:45;98515.53;;;8.95;61.20
85507;BME280;75915;41.988;21.460;2024-03-06T02:14:11;98515.34;;;9.02;60.89
85507;BME280;75915;41.988;21.460;2024-03-06T02:16:37;98521.75;;;9.06;60.97
85507;BME280;75915;41.988;21.460;2024-03-06T02:19:04;98525.47;;;9.00;61.34
85507;BME280;75915;41.988;21.460;2024-03-06T02:21:30;98528.94;;;9.00;61.39
85507;BME280;75915;41.988;21.460;2024-03-06T02:23:55;98525.19;;;9.01;61.36
85507;BME280;75915;41.988;21.460;2024-03-06T02:26:22;98531.94;;;9.09;61.40
85507;BME280;75915;41.988;21.460;2024-03-06T02:28:55;98534.63;;;9.09;61.81
85507;BME280;75915;41.988;21.460;2024-03-06T02:31:23;98530.59;;;9.06;61.75
85507;BME280;75915;41.988;21.460;2024-03-06T02:33:50;98537.50;;;9.02;62.29
85507;BME280;75915;41.988;21.460;2024-03-06T02:36:17;98538.53;;;8.96;62.59
85507;BME280;75915;41.988;21.460;2024-03-06T02:38:43;98545.22;;;8.98;62.52
85507;BME280;75915;41.988;21.460;2024-03-06T02:41:09;98538.00;;;8.94;62.32
85507;BME280;75915;41.988;21.460;2024-03-06T02:43:36;98546.06;;;8.99;62.42
85507;BME280;75915;41.988;21.460;2024-03-06T02:46:01;98542.03;;;8.96;62.70
85507;BME280;75915;41.988;21.460;2024-03-06T02:48:32;98550.06;;;9.02;62.56
85507;BME280;75915;41.988;21.460;2024-03-06T02:50:58;98542.28;;;8.95;62.48
85507;BME280;75915;41.988;21.460;2024-03-06T02:53:23;98539.63;;;9.00;62.25
85507;BME280;75915;41.988;21.460;2024-03-06T02:55:50;98540.72;;;9.04;62.35
85507;BME280;75915;41.988;21.460;2024-03-06T02:58:16;98543.44;;;9.09;62.01
85507;BME280;75915;41.988;21.460;2024-03-06T03:00:45;98537.81;;;9.11;61.94
85507;BME280;75915;41.988;21.460;2024-03-06T03:03:12;98546.63;;;9.06;62.13
85507;BME280;75915;41.988;21.460;2024-03-06T03:05:39;98547.47;;;9.12;62.20
85507;BME280;75915;41.988;21.460;2024-03-06T03:08:07;98538.69;;;9.16;61.54
85507;BME280;75915;41.988;21.460;2024-03-06T03:10:33;98549.63;;;9.20;61.83
85507;BME280;75915;41.988;21.460;2024-03-06T03:13:02;98552.28;;;9.15;61.50
85507;BME280;75915;41.988;21.460;2024-03-06T03:15:30;98547.50;;;9.17;61.73
85507;BME280;75915;41.988;21.460;2024-03-06T03:17:56;98551.19;;;9.11;62.06
85507;BME280;75915;41.988;21.460;2024-03-06T03:20:21;98554.41;;;9.13;61.86
85507;BME280;75915;41.988;21.460;2024-03-06T03:22:47;98550.94;;;9.12;61.97
85507;BME280;75915;41.988;21.460;2024-03-06T03:25:14;98551.72;;;9.13;62.12
85507;BME280;75915;41.988;21.460;2024-03-06T03:27:40;98555.72;;;9.10;61.92
85507;BME280;75915;41.988;21.460;2024-03-06T03:30:13;98552.56;;;9.13;61.82
85507;BME280;75915;41.988;21.460;2024-03-06T03:32:41;98555.75;;;9.15;61.57
85507;BME280;75915;41.988;21.460;2024-03-06T03:35:07;98556.03;;;9.14;61.77
85507;BME280;75915;41.988;21.460;2024-03-06T03:37:32;98562.66;;;9.06;62.08
85507;BME280;75915;41.988;21.460;2024-03-06T03:39:58;98565.63;;;9.10;61.55
85507;BME280;75915;41.988;21.460;2024-03-06T03:42:25;98566.72;;;9.14;61.73
85507;BME280;75915;41.988;21.460;2024-03-06T03:44:52;98572.34;;;9.17;61.38
85507;BME280;75915;41.988;21.460;2024-03-06T03:47:19;98576.56;;;9.08;61.34
85507;BME280;75915;41.988;21.460;2024-03-06T03:49:45;98577.63;;;9.07;61.73
85507;BME280;75915;41.988;21.460;2024-03-06T03:52:13;98577.63;;;9.07;61.93
85507;BME280;75915;41.988;21.460;2024-03-06T03:54:40;98575.63;;;8.87;61.86
85507;BME280;75915;41.988;21.460;2024-03-06T03:57:07;98584.19;;;8.89;62.02
85507;BME280;75915;41.988;21.460;2024-03-06T03:59:33;98573.22;;;8.91;62.09
85507;BME280;75915;41.988;21.460;2024-03-06T04:01:59;98581.56;;;8.94;61.80
85507;BME280;75915;41.988;21.460;2024-03-06T04:04:25;98585.59;;;8.97;61.67
85507;BME280;75915;41.988;21.460;2024-03-06T04:06:51;98582.34;;;8.95;62.05
85507;BME280;75915;41.988;21.460;2024-03-06T04:09:18;98584.22;;;8.94;61.95
85507;BME280;75915;41.988;21.460;2024-03-06T04:11:46;98586.94;;;9.00;61.35
85507;BME280;75915;41.988;21.460;2024-03-06T04:14:11;98587.59;;;8.80;61.99
85507;BME280;75915;41.988;21.460;2024-03-06T04:16:37;98587.50;;;8.74;62.11
85507;BME280;75915;41.988;21.460;2024-03-06T04:19:04;98593.44;;;8.82;61.97
85507;BME280;75915;41.988;21.460;2024-03-06T04:21:31;98598.31;;;8.85;62.16
85507;BME280;75915;41.988;21.460;2024-03-06T04:23:56;98593.53;;;8.87;61.88
85507;BME280;75915;41.988;21.460;2024-03-06T04:26:24;98603.66;;;8.85;61.35
85507;BME280;75915;41.988;21.460;2024-03-06T04:28:50;98605.78;;;8.83;61.66
85507;BME280;75915;41.988;21.460;2024-03-06T04:31:15;98601.53;;;8.87;61.61
85507;BME280;75915;41.988;21.460;2024-03-06T04:33:41;98600.63;;;8.76;61.63
85507;BME280;75915;41.988;21.460;2024-03-06T04:36:08;98607.28;;;8.73;61.66
85507;BME280;75915;41.988;21.460;2024-03-06T04:38:33;98610.72;;;8.69;61.98
85507;BME280;75915;41.988;21.460;2024-03-06T04:40:59;98607.47;;;8.67;62.10
85507;BME280;75915;41.988;21.460;2024-03-06T04:43:25;98612.03;;;8.66;62.11
85507;BME280;75915;41.988;21.460;2024-03-06T04:45:51;98620.84;;;8.67;62.03
85507;BME280;75915;41.988;21.460;2024-03-06T04:48:16;98617.97;;;8.73;61.89
85507;BME280;75915;41.988;21.460;2024-03-06T04:50:42;98615.34;;;8.79;61.69
85507;BME280;75915;41.988;21.460;2024-03-06T04:53:07;98619.31;;;8.76;61.50
85507;BME280;75915;41.988;21.460;2024-03-06T04:55:33;98617.22;;;8.78;61.88
85507;BME280;75915;41.988;21.460;2024-03-06T04:58:03;98621.75;;;8.78;61.67
85507;BME280;75915;41.988;21.460;2024-03-06T05:00:29;98626.97;;;8.67;61.56
85507;BME280;75915;41.988;21.460;2024-03-06T05:02:55;98624.97;;;8.52;61.80
85507;BME280;75915;41.988;21.460;2024-03-06T05:05:21;98626.41;;;8.60;62.08
85507;BME280;75915;41.988;21.460;2024-03-06T05:07:48;98618.53;;;8.48;62.27
85507;BME280;75915;41.988;21.460;2024-03-06T05:10:14;98630.31;;;8.52;62.58
85507;BME280;75915;41.988;21.460;2024-03-06T05:12:41;98627.97;;;8.56;62.81
85507;BME280;75915;41.988;21.460;2024-03-06T05:15:07;98632.28;;;8.62;62.17
85507;BME280;75915;41.988;21.460;2024-03-06T05:17:34;98635.56;;;8.69;62.35
85507;BME280;75915;41.988;21.460;2024-03-06T05:20:00;98638.22;;;8.69;62.60
85507;BME280;75915;41.988;21.460;2024-03-06T05:22:25;98633.75;;;8.75;62.17
85507;BME280;75915;41.988;21.460;2024-03-06T05:24:58;98639.16;;;8.80;62.11
85507;BME280;75915;41.988;21.460;2024-03-06T05:27:25;98642.22;;;8.67;62.39
85507;BME280;75915;41.988;21.460;2024-03-06T05:29:51;98642.44;;;8.60;62.63
85507;BME280;75915;41.988;21.460;2024-03-06T05:32:17;98646.75;;;8.66;63.06
85507;BME280;75915;41.988;21.460;2024-03-06T05:34:42;98646.78;;;8.71;62.53
85507;BME280;75915;41.988;21.460;2024-03-06T05:37:09;98644.69;;;8.73;61.93
85507;BME280;75915;41.988;21.460;2024-03-06T05:39:35;98648.50;;;8.83;62.02
85507;BME280;75915;41.988;21.460;2024-03-06T05:42:01;98651.03;;;8.94;61.55
85507;BME280;75915;41.988;21.460;2024-03-06T05:44:29;98647.13;;;9.07;61.30
85507;BME280;75915;41.988;21.460;2024-03-06T05:46:55;98644.50;;;9.12;60.98
85507;BME280;75915;41.988;21.460;2024-03-06T05:49:20;98657.13;;;9.22;60.91
85507;BME280;75915;41.988;21.460;2024-03-06T05:51:46;98661.31;;;9.45;60.81
85507;BME280;75915;41.988;21.460;2024-03-06T05:54:11;98663.53;;;9.58;59.80
85507;BME280;75915;41.988;21.460;2024-03-06T05:56:37;98661.47;;;9.71;59.22
85507;BME280;75915;41.988;21.460;2024-03-06T05:59:04;98667.97;;;9.85;59.48
85507;BME280;75915;41.988;21.460;2024-03-06T06:01:33;98664.56;;;10.00;59.16
85507;BME280;75915;41.988;21.460;2024-03-06T06:03:58;98662.00;;;10.20;58.38
85507;BME280;75915;41.988;21.460;2024-03-06T06:06:26;98664.31;;;10.01;58.28
85507;BME280;75915;41.988;21.460;2024-03-06T06:08:52;98674.22;;;10.01;58.48
85507;BME280;75915;41.988;21.460;2024-03-06T06:11:17;98674.41;;;9.84;58.68
85507;BME280;75915;41.988;21.460;2024-03-06T06:13:43;98676.28;;;9.83;58.36
85507;BME280;75915;41.988;21.460;2024-03-06T06:16:09;98682.56;;;9.62;58.64
85507;BME280;75915;41.988;21.460;2024-03-06T06:18:36;98681.19;;;9.22;58.77
85507;BME280;75915;41.988;21.460;2024-03-06T06:21:01;98679.81;;;8.87;60.11
85507;BME280;75915;41.988;21.460;2024-03-06T06:23:29;98672.13;;;8.96;60.01
85507;BME280;75915;41.988;21.460;2024-03-06T06:25:54;98674.97;;;9.11;59.55
85507;BME280;75915;41.988;21.460;2024-03-06T06:28:21;98675.59;;;9.24;59.25
85507;BME280;75915;41.988;21.460;2024-03-06T06:30:48;98676.16;;;9.26;59.27
85507;BME280;75915;41.988;21.460;2024-03-06T06:33:18;98672.84;;;9.51;59.00
85507;BME280;75915;41.988;21.460;2024-03-06T06:35:44;98678.44;;;9.87;58.96
85507;BME280;75915;41.988;21.460;2024-03-06T06:38:09;98680.44;;;10.22;57.19
85507;BME280;75915;41.988;21.460;2024-03-06T06:40:36;98685.97;;;10.00;57.09
85507;BME280;75915;41.988;21.460;2024-03-06T06:43:02;98680.41;;;10.07;57.19
85507;BME280;75915;41.988;21.460;2024-03-06T06:45:27;98683.72;;;9.76;57.66
85507;BME280;75915;41.988;21.460;2024-03-06T06:47:54;98695.16;;;9.67;58.04
85507;BME280;75915;41.988;21.460;2024-03-06T06:50:20;98688.41;;;10.01;57.50
85507;BME280;75915;41.988;21.460;2024-03-06T06:52:51;98691.66;;;9.66;58.54
85507;BME280;75915;41.988;21.460;2024-03-06T06:55:16;98695.75;;;9.74;58.05
85507;BME280;75915;41.988;21.460;2024-03-06T06:57:42;98697.72;;;9.89;57.65
85507;BME280;75915;41.988;21.460;2024-03-06T07:00:09;98702.50;;;9.87;57.54
85507;BME280;75915;41.988;21.460;2024-03-06T07:02:41;98704.41;;;9.54;58.06
85507;BME280;75915;41.988;21.460;2024-03-06T07:05:09;98699.28;;;9.85;58.01
85507;BME280;75915;41.988;21.460;2024-03-06T07:07:35;98704.13;;;9.93;57.64
85507;BME280;75915;41.988;21.460;2024-03-06T07:10:01;98699.19;;;10.22;57.15
85507;BME280;75915;41.988;21.460;2024-03-06T07:12:30;98693.19;;;10.47;56.26
85507;BME280;75915;41.988;21.460;2024-03-06T07:14:58;98685.78;;;10.90;55.35
85507;BME280;75915;41.988;21.460;2024-03-06T07:17:25;98695.72;;;11.05;54.90
85507;BME280;75915;41.988;21.460;2024-03-06T07:19:50;98687.44;;;11.12;54.04
85507;BME280;75915;41.988;21.460;2024-03-06T07:22:19;98700.84;;;11.22;53.83
85507;BME280;75915;41.988;21.460;2024-03-06T07:24:46;98698.09;;;10.81;54.59
85507;BME280;75915;41.988;21.460;2024-03-06T07:27:11;98702.66;;;10.85;54.80
85507;BME280;75915;41.988;21.460;2024-03-06T07:29:37;98701.88;;;10.90;54.75
85507;BME280;75915;41.988;21.460;2024-03-06T07:32:04;98690.63;;;11.08;54.47
85507;BME280;75915;41.988;21.460;2024-03-06T07:34:33;98688.19;;;11.73;53.52
85507;BME280;75915;41.988;21.460;2024-03-06T07:36:59;98692.16;;;12.12;52.61
85507;BME280;75915;41.988;21.460;2024-03-06T07:39:27;98692.38;;;12.26;52.18
85507;BME280;75915;41.988;21.460;2024-03-06T07:41:53;98695.25;;;12.45;51.76
85507;BME280;75915;41.988;21.460;2024-03-06T07:44:19;98691.25;;;12.32;50.75
85507;BME280;75915;41.988;21.460;2024-03-06T07:46:45;98685.88;;;12.32;51.56
85507;BME280;75915;41.988;21.460;2024-03-06T07:49:11;98695.09;;;12.15;51.19
85507;BME280;75915;41.988;21.460;2024-03-06T07:51:38;98694.06;;;11.91;51.86
85507;BME280;75915;41.988;21.460;2024-03-06T07:54:04;98691.44;;;11.60;52.58
85507;BME280;75915;41.988;21.460;2024-03-06T07:56:30;98692.19;;;11.81;52.74
85507;BME280;75915;41.988;21.460;2024-03-06T07:58:55;98697.19;;;12.29;52.68
85507;BME280;75915;41.988;21.460;2024-03-06T08:01:21;98694.78;;;12.22;51.73
85507;BME280;75915;41.988;21.460;2024-03-06T08:03:47;98699.47;;;12.61;50.70
85507;BME280;75915;41.988;21.460;2024-03-06T08:06:13;98690.34;;;12.62;50.83
85507;BME280;75915;41.988;21.460;2024-03-06T08:08:42;98700.31;;;12.51;50.90
85507;BME280;75915;41.988;21.460;2024-03-06T08:11:10;98696.84;;;12.46;50.63
85507;BME280;75915;41.988;21.460;2024-03-06T08:13:36;98692.63;;;12.29;50.86
85507;BME280;75915;41.988;21.460;2024-03-06T08:16:02;98696.41;;;12.83;50.21
85507;BME280;75915;41.988;21.460;2024-03-06T08:18:30;98686.84;;;13.40;49.11
85507;BME280;75915;41.988;21.460;2024-03-06T08:20:56;98684.81;;;13.85;48.57
85507;BME280;75915;41.988;21.460;2024-03-06T08:23:23;98683.78;;;13.18;48.86
85507;BME280;75915;41.988;21.460;2024-03-06T08:25:50;98690.97;;;12.93;48.97
85507;BME280;75915;41.988;21.460;2024-03-06T08:28:16;98685.06;;;13.26;48.87
85507;BME280;75915;41.988;21.460;2024-03-06T08:30:42;98676.66;;;13.66;49.15
85507;BME280;75915;41.988;21.460;2024-03-06T08:33:07;98675.63;;;14.35;47.98
85507;BME280;75915;41.988;21.460;2024-03-06T08:35:34;98678.19;;;14.69;46.19
85507;BME280;75915;41.988;21.460;2024-03-06T08:37:59;98676.81;;;14.04;47.66
85507;BME280;75915;41.988;21.460;2024-03-06T08:40:25;98671.09;;;14.11;48.29
85507;BME280;75915;41.988;21.460;2024-03-06T08:42:53;98679.19;;;14.11;47.74
85507;BME280;75915;41.988;21.460;2024-03-06T08:45:18;98672.72;;;14.31;47.39
85507;BME280;75915;41.988;21.460;2024-03-06T08:47:44;98671.16;;;14.49;46.68
85507;BME280;75915;41.988;21.460;2024-03-06T08:50:11;98670.09;;;14.69;46.53
85507;BME280;75915;41.988;21.460;2024-03-06T08:52:41;98660.25;;;14.97;46.33
85507;BME280;75915;41.988;21.460;2024-03-06T08:55:08;98667.41;;;15.40;44.81
85507;BME280;75915;41.988;21.460;2024-03-06T08:57:37;98669.00;;;15.08;44.99
85507;BME280;75915;41.988;21.460;2024-03-06T09:00:07;98667.69;;;15.38;45.31
85507;BME280;75915;41.988;21.460;2024-03-06T09:02:39;98666.00;;;15.75;43.99
85507;BME280;75915;41.988;21.460;2024-03-06T09:05:22;98668.16;;;14.50;44.92
85507;BME280;75915;41.988;21.460;2024-03-06T09:07:47;98668.56;;;13.96;46.79
85507;BME280;75915;41.988;21.460;2024-03-06T09:10:13;98665.91;;;14.15;45.59
85507;BME280;75915;41.988;21.460;2024-03-06T09:12:39;98666.91;;;14.67;45.38
85507;BME280;75915;41.988;21.460;2024-03-06T09:15:05;98662.38;;;14.81;44.97
85507;BME280;75915;41.988;21.460;2024-03-06T09:17:32;98651.66;;;14.95;44.99
85507;BME280;75915;41.988;21.460;2024-03-06T09:19:58;98650.69;;;14.86;45.11
85507;BME280;75915;41.988;21.460;2024-03-06T09:22:24;98651.44;;;15.24;44.81
85507;BME280;75915;41.988;21.460;2024-03-06T09:24:50;98646.69;;;15.35;44.51
85507;BME280;75915;41.988;21.460;2024-03-06T09:27:16;98644.94;;;15.58;44.28
85507;BME280;75915;41.988;21.460;2024-03-06T09:29:43;98645.22;;;15.43;44.97
85507;BME280;75915;41.988;21.460;2024-03-06T09:32:09;98644.03;;;15.49;44.88
85507;BME280;75915;41.988;21.460;2024-03-06T09:34:37;98634.69;;;15.41;45.22
85507;BME280;75915;41.988;21.460;2024-03-06T09:37:04;98636.75;;;14.98;45.59
85507;BME280;75915;41.988;21.460;2024-03-06T09:39:30;98637.97;;;14.54;46.84
85507;BME280;75915;41.988;21.460;2024-03-06T09:41:55;98643.94;;;14.69;46.81
85507;BME280;75915;41.988;21.460;2024-03-06T09:44:22;98633.25;;;14.64;46.46
85507;BME280;75915;41.988;21.460;2024-03-06T09:46:48;98632.13;;;14.65;46.77
85507;BME280;75915;41.988;21.460;2024-03-06T09:49:21;98629.31;;;15.08;45.59
85507;BME280;75915;41.988;21.460;2024-03-06T09:51:49;98637.88;;;14.97;46.33
85507;BME280;75915;41.988;21.460;2024-03-06T09:54:16;98639.09;;;15.37;44.89
85507;BME280;75915;41.988;21.460;2024-03-06T09:56:48;98630.72;;;15.52;44.21
85507;BME280;75915;41.988;21.460;2024-03-06T09:59:16;98630.03;;;15.47;44.29
85507;BME280;75915;41.988;21.460;2024-03-06T10:01:54;98629.97;;;15.66;44.43
85507;BME280;75915;41.988;21.460;2024-03-06T10:04:22;98623.88;;;15.27;44.44
85507;BME280;75915;41.988;21.460;2024-03-06T10:06:50;98618.25;;;15.24;44.80
85507;BME280;75915;41.988;21.460;2024-03-06T10:09:19;98618.03;;;15.06;45.29
85507;BME280;75915;41.988;21.460;2024-03-06T10:11:45;98614.03;;;14.85;45.73
85507;BME280;75915;41.988;21.460;2024-03-06T10:14:12;98618.84;;;14.88;45.26
85507;BME280;75915;41.988;21.460;2024-03-06T10:16:56;98606.09;;;14.93;45.33
85507;BME280;75915;41.988;21.460;2024-03-06T10:19:27;98605.63;;;15.05;45.71
85507;BME280;75915;41.988;21.460;2024-03-06T10:22:15;98600.25;;;15.19;45.50
85507;BME280;75915;41.988;21.460;2024-03-06T10:24:41;98598.00;;;15.40;44.50
85507;BME280;75915;41.988;21.460;2024-03-06T10:27:07;98595.03;;;15.09;44.79
85507;BME280;75915;41.988;21.460;2024-03-06T10:29:32;98586.09;;;14.62;45.47
85507;BME280;75915;41.988;21.460;2024-03-06T10:31:58;98594.03;;;14.72;45.84
85507;BME280;75915;41.988;21.460;2024-03-06T10:34:24;98594.34;;;15.17;45.15
85507;BME280;75915;41.988;21.460;2024-03-06T10:37:02;98589.28;;;15.76;44.14
85507;BME280;75915;41.988;21.460;2024-03-06T10:39:35;98583.47;;;15.83;43.57
85507;BME280;75915;41.988;21.460;2024-03-06T10:42:02;98576.06;;;16.02;42.68
85507;BME280;75915;41.988;21.460;2024-03-06T10:44:32;98573.81;;;15.63;43.14
85507;BME280;75915;41.988;21.460;2024-03-06T10:47:04;98573.88;;;15.90;42.68
85507;BME280;75915;41.988;21.460;2024-03-06T10:49:32;98564.13;;;15.62;43.41
85507;BME280;75915;41.988;21.460;2024-03-06T10:52:04;98565.44;;;15.64;43.01
85507;BME280;75915;41.988;21.460;2024-03-06T10:54:34;98560.41;;;15.30;43.27
85507;BME280;75915;41.988;21.460;2024-03-06T10:57:08;98557.22;;;15.55;43.37
85507;BME280;75915;41.988;21.460;2024-03-06T10:59:35;98561.72;;;15.60;42.47
85507;BME280;75915;41.988;21.460;2024-03-06T11:02:01;98549.13;;;15.55;42.63
85507;BME280;75915;41.988;21.460;2024-03-06T11:04:29;98543.03;;;15.91;42.35
85507;BME280;75915;41.988;21.460;2024-03-06T11:07:01;98528.84;;;16.36;41.84
85507;BME280;75915;41.988;21.460;2024-03-06T11:09:28;98533.72;;;15.97;41.89
85507;BME280;75915;41.988;21.460;2024-03-06T11:11:55;98529.75;;;15.81;42.40
85507;BME280;75915;41.988;21.460;2024-03-06T11:14:22;98527.31;;;16.07;42.15
85507;BME280;75915;41.988;21.460;2024-03-06T11:17:05;98526.13;;;15.86;42.10
85507;BME280;75915;41.988;21.460;2024-03-06T11:23:01;98511.50;;;15.87;41.97
85507;BME280;75915;41.988;21.460;2024-03-06T11:28:23;98495.00;;;15.88;41.28
85507;BME280;75915;41.988;21.460;2024-03-06T11:31:09;98492.59;;;16.00;42.19
85507;BME280;75915;41.988;21.460;2024-03-06T11:33:43;98485.88;;;16.34;40.69
85507;BME280;75915;41.988;21.460;2024-03-06T11:36:28;98483.56;;;16.05;40.75
85507;BME280;75915;41.988;21.460;2024-03-06T11:39:11;98475.75;;;16.04;41.03
85507;BME280;75915;41.988;21.460;2024-03-06T11:44:12;98474.34;;;15.56;41.33
85507;BME280;75915;41.988;21.460;2024-03-06T11:46:48;98474.88;;;15.94;41.35
85507;BME280;75915;41.988;21.460;2024-03-06T11:49:18;98462.56;;;16.25;40.38
85507;BME280;75915;41.988;21.460;2024-03-06T11:51:48;98461.16;;;16.50;39.27
85507;BME280;75915;41.988;21.460;2024-03-06T11:54:14;98451.22;;;16.36;39.04
85507;BME280;75915;41.988;21.460;2024-03-06T11:56:40;98451.13;;;16.50;40.38
85507;BME280;75915;41.988;21.460;2024-03-06T11:59:06;98451.50;;;16.80;39.77
85507;BME280;75915;41.988;21.460;2024-03-06T12:01:33;98436.72;;;16.86;37.54
85507;BME280;75915;41.988;21.460;2024-03-06T12:04:00;98435.66;;;16.96;37.25
85507;BME280;75915;41.988;21.460;2024-03-06T12:06:27;98448.13;;;17.05;37.58
85507;BME280;75915;41.988;21.460;2024-03-06T12:08:55;98427.28;;;17.15;36.34
85507;BME280;75915;41.988;21.460;2024-03-06T12:11:22;98421.88;;;17.15;34.91
85507;BME280;75915;41.988;21.460;2024-03-06T12:13:51;98420.84;;;17.33;35.03
85507;BME280;75915;41.988;21.460;2024-03-06T12:16:20;98421.47;;;17.30;34.38
85507;BME280;75915;41.988;21.460;2024-03-06T12:18:45;98420.50;;;17.26;35.80
85507;BME280;75915;41.988;21.460;2024-03-06T12:21:12;98412.72;;;17.33;35.17
85507;BME280;75915;41.988;21.460;2024-03-06T12:23:39;98407.28;;;17.33;34.95
85507;BME280;75915;41.988;21.460;2024-03-06T12:26:05;98405.75;;;17.01;36.44
85507;BME280;75915;41.988;21.460;2024-03-06T12:28:34;98407.16;;;16.90;35.74
85507;BME280;75915;41.988;21.460;2024-03-06T12:31:04;98405.75;;;17.01;35.27
85507;BME280;75915;41.988;21.460;2024-03-06T12:33:35;98402.03;;;16.88;35.42
85507;BME280;75915;41.988;21.460;2024-03-06T12:36:14;98393.19;;;16.96;35.70
85507;BME280;75915;41.988;21.460;2024-03-06T12:38:41;98392.59;;;17.17;35.42
85507;BME280;75915;41.988;21.460;2024-03-06T12:41:07;98396.09;;;17.17;35.62
85507;BME280;75915;41.988;21.460;2024-03-06T12:43:32;98388.16;;;17.21;34.80
85507;BME280;75915;41.988;21.460;2024-03-06T12:46:02;98386.38;;;17.25;33.61
85507;BME280;75915;41.988;21.460;2024-03-06T12:48:29;98385.41;;;17.03;34.79
85507;BME280;75915;41.988;21.460;2024-03-06T12:50:57;98381.81;;;16.85;35.94
85507;BME280;75915;41.988;21.460;2024-03-06T12:53:30;98385.50;;;16.90;34.33
85507;BME280;75915;41.988;21.460;2024-03-06T12:55:57;98376.09;;;16.87;34.56
85507;BME280;75915;41.988;21.460;2024-03-06T12:58:23;98374.34;;;16.91;34.27
85507;BME280;75915;41.988;21.460;2024-03-06T13:00:48;98374.34;;;16.91;33.85
85507;BME280;75915;41.988;21.460;2024-03-06T13:03:14;98380.78;;;17.04;33.36
85507;BME280;75915;41.988;21.460;2024-03-06T13:05:43;98362.31;;;17.15;33.63